sensor_id;sensor_type;location;lat;lon;timestamp;P1;P2;P0
47810;PMS5003;33575;52.600;7.318;2023-11-21T00:00:55;36;28;
47810;PMS5003;33575;52.600;7.318;2023-11-21T00:03:25;30;25;
47810;PMS5003;33575;52.600;7.318;2023-11-21T00:05:55;34;28;
47810;PMS5003;33575;52.600;7.318;2023-11-21T00:08:26;42;30;
47810;PMS5003;33575;52.600;7.318;2023-11-21T00:10:57;35;30;
47810;PMS5003;33575;52.600;7.318;2023-11-21T00:13:27;33;29;
47810;PMS5003;33575;52.600;7.318;2023-11-21T00:15:57;40;31;
47810;PMS5003;33575;52.600;7.318;2023-11-21T00:18:27;37;30;
47810;PMS5003;33575;52.600;7.318;2023-11-21T00:20:58;41;32;
47810;PMS5003;33575;52.600;7.318;2023-11-21T00:23:28;34;27;
47810;PMS5003;33575;52.600;7.318;2023-11-21T00:25:58;39;26;
47810;PMS5003;33575;52.600;7.318;2023-11-21T00:28:28;41;34;
47810;PMS5003;33575;52.600;7.318;2023-11-21T00:30:59;31;27;
47810;PMS5003;33575;52.600;7.318;2023-11-21T00:33:29;30;26;
47810;PMS5003;33575;52.600;7.318;2023-11-21T00:35:59;49;34;
47810;PMS5003;33575;52.600;7.318;2023-11-21T00:38:30;36;32;
47810;PMS5003;33575;52.600;7.318;2023-11-21T00:41:00;36;32;
47810;PMS5003;33575;52.600;7.318;2023-11-21T00:43:31;37;34;
47810;PMS5003;33575;52.600;7.318;2023-11-21T00:46:03;36;31;
47810;PMS5003;33575;52.600;7.318;2023-11-21T00:48:32;44;30;
47810;PMS5003;33575;52.600;7.318;2023-11-21T00:51:03;38;32;
47810;PMS5003;33575;52.600;7.318;2023-11-21T00:53:33;33;29;
47810;PMS5003;33575;52.600;7.318;2023-11-21T00:56:04;39;28;
47810;PMS5003;33575;52.600;7.318;2023-11-21T00:58:34;43;28;
47810;PMS5003;33575;52.600;7.318;2023-11-21T01:01:05;36;31;
47810;PMS5003;33575;52.600;7.318;2023-11-21T01:03:35;36;30;
47810;PMS5003;33575;52.600;7.318;2023-11-21T01:06:06;26;25;
47810;PMS5003;33575;52.600;7.318;2023-11-21T01:08:35;38;27;
47810;PMS5003;33575;52.600;7.318;2023-11-21T01:11:06;34;30;
47810;PMS5003;33575;52.600;7.318;2023-11-21T01:13:37;40;30;
47810;PMS5003;33575;52.600;7.318;2023-11-21T01:16:07;31;30;
47810;PMS5003;33575;52.600;7.318;2023-11-21T01:18:37;32;29;
47810;PMS5003;33575;52.600;7.318;2023-11-21T01:21:07;43;34;
47810;PMS5003;33575;52.600;7.318;2023-11-21T01:23:37;39;30;
47810;PMS5003;33575;52.600;7.318;2023-11-21T01:26:08;31;26;
47810;PMS5003;33575;52.600;7.318;2023-11-21T01:28:38;37;32;
47810;PMS5003;33575;52.600;7.318;2023-11-21T01:31:09;40;31;
47810;PMS5003;33575;52.600;7.318;2023-11-21T01:33:40;36;29;
47810;PMS5003;33575;52.600;7.318;2023-11-21T01:36:10;36;30;
47810;PMS5003;33575;52.600;7.318;2023-11-21T01:38:41;32;30;
47810;PMS5003;33575;52.600;7.318;2023-11-21T01:41:11;41;29;
47810;PMS5003;33575;52.600;7.318;2023-11-21T01:43:42;40;29;
47810;PMS5003;33575;52.600;7.318;2023-11-21T01:46:12;36;32;
47810;PMS5003;33575;52.600;7.318;2023-11-21T01:48:42;46;35;
47810;PMS5003;33575;52.600;7.318;2023-11-21T01:51:13;31;28;
47810;PMS5003;33575;52.600;7.318;2023-11-21T01:53:43;38;32;
47810;PMS5003;33575;52.600;7.318;2023-11-21T01:56:14;43;33;
47810;PMS5003;33575;52.600;7.318;2023-11-21T01:58:44;39;30;
47810;PMS5003;33575;52.600;7.318;2023-11-21T02:01:14;39;31;
47810;PMS5003;33575;52.600;7.318;2023-11-21T02:03:44;32;29;
47810;PMS5003;33575;52.600;7.318;2023-11-21T02:06:15;44;29;
47810;PMS5003;33575;52.600;7.318;2023-11-21T02:08:45;41;34;
47810;PMS5003;33575;52.600;7.318;2023-11-21T02:11:15;47;34;
47810;PMS5003;33575;52.600;7.318;2023-11-21T02:13:46;35;29;
47810;PMS5003;33575;52.600;7.318;2023-11-21T02:16:16;43;28;
47810;PMS5003;33575;52.600;7.318;2023-11-21T02:18:46;41;34;
47810;PMS5003;33575;52.600;7.318;2023-11-21T02:21:17;37;32;
47810;PMS5003;33575;52.600;7.318;2023-11-21T02:23:47;39;30;
47810;PMS5003;33575;52.600;7.318;2023-11-21T02:26:18;35;31;
47810;PMS5003;33575;52.600;7.318;2023-11-21T02:28:49;40;30;
47810;PMS5003;33575;52.600;7.318;2023-11-21T02:31:19;37;34;
47810;PMS5003;33575;52.600;7.318;2023-11-21T02:33:50;31;27;
47810;PMS5003;33575;52.600;7.318;2023-11-21T02:36:21;43;31;
47810;PMS5003;33575;52.600;7.318;2023-11-21T02:38:52;42;30;
47810;PMS5003;33575;52.600;7.318;2023-11-21T02:41:22;41;31;
47810;PMS5003;33575;52.600;7.318;2023-11-21T02:43:52;41;29;
47810;PMS5003;33575;52.600;7.318;2023-11-21T02:46:22;41;30;
47810;PMS5003;33575;52.600;7.318;2023-11-21T02:48:53;38;30;
47810;PMS5003;33575;52.600;7.318;2023-11-21T02:51:24;45;31;
47810;PMS5003;33575;52.600;7.318;2023-11-21T02:53:54;32;28;
47810;PMS5003;33575;52.600;7.318;2023-11-21T02:56:25;36;25;
47810;PMS5003;33575;52.600;7.318;2023-11-21T02:58:56;30;27;
47810;PMS5003;33575;52.600;7.318;2023-11-21T03:01:26;36;27;
47810;PMS5003;33575;52.600;7.318;2023-11-21T03:03:56;40;30;
47810;PMS5003;33575;52.600;7.318;2023-11-21T03:06:26;43;32;
47810;PMS5003;33575;52.600;7.318;2023-11-21T03:08:56;38;29;
47810;PMS5003;33575;52.600;7.318;2023-11-21T03:11:27;40;30;
47810;PMS5003;33575;52.600;7.318;2023-11-21T03:13:57;39;29;
47810;PMS5003;33575;52.600;7.318;2023-11-21T03:16:28;33;28;
47810;PMS5003;33575;52.600;7.318;2023-11-21T03:18:58;34;29;
47810;PMS5003;33575;52.600;7.318;2023-11-21T03:21:28;32;27;
47810;PMS5003;33575;52.600;7.318;2023-11-21T03:23:59;31;26;
47810;PMS5003;33575;52.600;7.318;2023-11-21T03:26:29;38;27;
47810;PMS5003;33575;52.600;7.318;2023-11-21T03:29:00;25;24;
47810;PMS5003;33575;52.600;7.318;2023-11-21T03:31:31;36;27;
47810;PMS5003;33575;52.600;7.318;2023-11-21T03:34:01;35;29;
47810;PMS5003;33575;52.600;7.318;2023-11-21T03:36:32;41;32;
47810;PMS5003;33575;52.600;7.318;2023-11-21T03:39:02;32;27;
47810;PMS5003;33575;52.600;7.318;2023-11-21T03:41:33;33;30;
47810;PMS5003;33575;52.600;7.318;2023-11-21T03:44:04;43;30;
47810;PMS5003;33575;52.600;7.318;2023-11-21T03:46:34;32;29;
47810;PMS5003;33575;52.600;7.318;2023-11-21T03:49:04;46;32;
47810;PMS5003;33575;52.600;7.318;2023-11-21T03:51:35;34;29;
47810;PMS5003;33575;52.600;7.318;2023-11-21T03:54:05;45;31;
47810;PMS5003;33575;52.600;7.318;2023-11-21T03:56:35;34;29;
47810;PMS5003;33575;52.600;7.318;2023-11-21T03:59:05;39;31;
47810;PMS5003;33575;52.600;7.318;2023-11-21T04:01:36;38;31;
47810;PMS5003;33575;52.600;7.318;2023-11-21T04:04:06;34;29;
47810;PMS5003;33575;52.600;7.318;2023-11-21T04:06:37;36;34;
47810;PMS5003;33575;52.600;7.318;2023-11-21T04:09:07;44;32;
47810;PMS5003;33575;52.600;7.318;2023-11-21T04:11:38;32;26;
47810;PMS5003;33575;52.600;7.318;2023-11-21T04:14:08;41;29;
47810;PMS5003;33575;52.600;7.318;2023-11-21T04:16:38;34;27;
47810;PMS5003;33575;52.600;7.318;2023-11-21T04:19:09;45;33;
47810;PMS5003;33575;52.600;7.318;2023-11-21T04:21:40;33;29;
47810;PMS5003;33575;52.600;7.318;2023-11-21T04:24:11;32;29;
47810;PMS5003;33575;52.600;7.318;2023-11-21T04:26:42;37;28;
47810;PMS5003;33575;52.600;7.318;2023-11-21T04:29:12;36;27;
47810;PMS5003;33575;52.600;7.318;2023-11-21T04:31:42;33;27;
47810;PMS5003;33575;52.600;7.318;2023-11-21T04:34:12;35;27;
47810;PMS5003;33575;52.600;7.318;2023-11-21T04:36:43;28;25;
47810;PMS5003;33575;52.600;7.318;2023-11-21T04:39:13;40;27;
47810;PMS5003;33575;52.600;7.318;2023-11-21T04:41:43;30;27;
47810;PMS5003;33575;52.600;7.318;2023-11-21T04:44:14;35;26;
47810;PMS5003;33575;52.600;7.318;2023-11-21T04:46:44;42;30;
47810;PMS5003;33575;52.600;7.318;2023-11-21T04:49:14;36;29;
47810;PMS5003;33575;52.600;7.318;2023-11-21T04:51:45;32;27;
47810;PMS5003;33575;52.600;7.318;2023-11-21T04:54:15;34;27;
47810;PMS5003;33575;52.600;7.318;2023-11-21T04:56:45;42;31;
47810;PMS5003;33575;52.600;7.318;2023-11-21T04:59:16;37;27;
47810;PMS5003;33575;52.600;7.318;2023-11-21T05:01:46;37;30;
47810;PMS5003;33575;52.600;7.318;2023-11-21T05:04:16;39;32;
47810;PMS5003;33575;52.600;7.318;2023-11-21T05:06:47;36;28;
47810;PMS5003;33575;52.600;7.318;2023-11-21T05:09:17;34;29;
47810;PMS5003;33575;52.600;7.318;2023-11-21T05:11:48;30;26;
47810;PMS5003;33575;52.600;7.318;2023-11-21T05:14:19;36;29;
47810;PMS5003;33575;52.600;7.318;2023-11-21T05:16:50;40;28;
47810;PMS5003;33575;52.600;7.318;2023-11-21T05:19:20;36;29;
47810;PMS5003;33575;52.600;7.318;2023-11-21T05:21:50;40;29;
47810;PMS5003;33575;52.600;7.318;2023-11-21T05:24:20;29;26;
47810;PMS5003;33575;52.600;7.318;2023-11-21T05:26:51;37;28;
47810;PMS5003;33575;52.600;7.318;2023-11-21T05:29:22;37;33;
47810;PMS5003;33575;52.600;7.318;2023-11-21T05:31:52;32;27;
47810;PMS5003;33575;52.600;7.318;2023-11-21T05:34:22;42;33;
47810;PMS5003;33575;52.600;7.318;2023-11-21T05:36:53;37;28;
47810;PMS5003;33575;52.600;7.318;2023-11-21T05:39:23;40;29;
47810;PMS5003;33575;52.600;7.318;2023-11-21T05:41:54;40;33;
47810;PMS5003;33575;52.600;7.318;2023-11-21T05:44:24;39;27;
47810;PMS5003;33575;52.600;7.318;2023-11-21T05:46:55;37;32;
47810;PMS5003;33575;52.600;7.318;2023-11-21T05:49:25;32;30;
47810;PMS5003;33575;52.600;7.318;2023-11-21T05:51:55;39;32;
47810;PMS5003;33575;52.600;7.318;2023-11-21T05:54:25;28;26;
47810;PMS5003;33575;52.600;7.318;2023-11-21T05:56:56;36;31;
47810;PMS5003;33575;52.600;7.318;2023-11-21T05:59:26;32;31;
47810;PMS5003;33575;52.600;7.318;2023-11-21T06:01:57;29;28;
47810;PMS5003;33575;52.600;7.318;2023-11-21T06:04:28;33;29;
47810;PMS5003;33575;52.600;7.318;2023-11-21T06:06:58;33;28;
47810;PMS5003;33575;52.600;7.318;2023-11-21T06:09:28;36;29;
47810;PMS5003;33575;52.600;7.318;2023-11-21T06:11:59;30;27;
47810;PMS5003;33575;52.600;7.318;2023-11-21T06:14:30;31;26;
47810;PMS5003;33575;52.600;7.318;2023-11-21T06:17:00;25;24;
47810;PMS5003;33575;52.600;7.318;2023-11-21T06:19:31;35;26;
47810;PMS5003;33575;52.600;7.318;2023-11-21T06:22:01;32;24;
47810;PMS5003;33575;52.600;7.318;2023-11-21T06:24:31;29;24;
47810;PMS5003;33575;52.600;7.318;2023-11-21T06:27:03;37;29;
47810;PMS5003;33575;52.600;7.318;2023-11-21T06:29:32;35;28;
47810;PMS5003;33575;52.600;7.318;2023-11-21T06:32:02;29;28;
47810;PMS5003;33575;52.600;7.318;2023-11-21T06:34:33;36;29;
47810;PMS5003;33575;52.600;7.318;2023-11-21T06:37:03;38;29;
47810;PMS5003;33575;52.600;7.318;2023-11-21T06:39:33;28;25;
47810;PMS5003;33575;52.600;7.318;2023-11-21T06:42:04;34;27;
47810;PMS5003;33575;52.600;7.318;2023-11-21T06:44:34;22;19;
47810;PMS5003;33575;52.600;7.318;2023-11-21T06:47:05;27;22;
47810;PMS5003;33575;52.600;7.318;2023-11-21T06:49:35;30;22;
47810;PMS5003;33575;52.600;7.318;2023-11-21T06:52:06;22;22;
47810;PMS5003;33575;52.600;7.318;2023-11-21T06:54:37;21;19;
47810;PMS5003;33575;52.600;7.318;2023-11-21T06:57:07;31;22;
47810;PMS5003;33575;52.600;7.318;2023-11-21T06:59:37;20;17;
47810;PMS5003;33575;52.600;7.318;2023-11-21T07:02:07;27;23;
47810;PMS5003;33575;52.600;7.318;2023-11-21T07:04:38;25;19;
47810;PMS5003;33575;52.600;7.318;2023-11-21T07:07:08;28;23;
47810;PMS5003;33575;52.600;7.318;2023-11-21T07:09:38;23;20;
47810;PMS5003;33575;52.600;7.318;2023-11-21T07:12:09;22;21;
47810;PMS5003;33575;52.600;7.318;2023-11-21T07:14:39;26;25;
47810;PMS5003;33575;52.600;7.318;2023-11-21T07:17:09;27;24;
47810;PMS5003;33575;52.600;7.318;2023-11-21T07:19:39;30;22;
47810;PMS5003;33575;52.600;7.318;2023-11-21T07:22:09;34;22;
47810;PMS5003;33575;52.600;7.318;2023-11-21T07:24:40;25;23;
47810;PMS5003;33575;52.600;7.318;2023-11-21T07:27:10;25;20;
47810;PMS5003;33575;52.600;7.318;2023-11-21T07:29:41;36;27;
47810;PMS5003;33575;52.600;7.318;2023-11-21T07:32:11;30;24;
47810;PMS5003;33575;52.600;7.318;2023-11-21T07:34:41;30;23;
47810;PMS5003;33575;52.600;7.318;2023-11-21T07:37:12;28;22;
47810;PMS5003;33575;52.600;7.318;2023-11-21T07:39:44;26;22;
47810;PMS5003;33575;52.600;7.318;2023-11-21T07:42:13;37;26;
47810;PMS5003;33575;52.600;7.318;2023-11-21T07:44:44;41;33;
47810;PMS5003;33575;52.600;7.318;2023-11-21T07:47:14;45;38;
47810;PMS5003;33575;52.600;7.318;2023-11-21T07:49:45;42;34;
47810;PMS5003;33575;52.600;7.318;2023-11-21T07:52:15;54;43;
47810;PMS5003;33575;52.600;7.318;2023-11-21T07:54:46;49;46;
47810;PMS5003;33575;52.600;7.318;2023-11-21T07:57:16;29;26;
47810;PMS5003;33575;52.600;7.318;2023-11-21T07:59:46;25;24;
47810;PMS5003;33575;52.600;7.318;2023-11-21T08:02:16;36;26;
47810;PMS5003;33575;52.600;7.318;2023-11-21T08:04:47;35;27;
47810;PMS5003;33575;52.600;7.318;2023-11-21T08:07:17;26;24;
47810;PMS5003;33575;52.600;7.318;2023-11-21T08:09:47;26;21;
47810;PMS5003;33575;52.600;7.318;2023-11-21T08:12:18;41;30;
47810;PMS5003;33575;52.600;7.318;2023-11-21T08:14:48;36;31;
47810;PMS5003;33575;52.600;7.318;2023-11-21T08:17:19;41;31;
47810;PMS5003;33575;52.600;7.318;2023-11-21T08:19:49;34;27;
47810;PMS5003;33575;52.600;7.318;2023-11-21T08:22:19;28;23;
47810;PMS5003;33575;52.600;7.318;2023-11-21T08:24:49;30;24;
47810;PMS5003;33575;52.600;7.318;2023-11-21T08:27:20;25;23;
47810;PMS5003;33575;52.600;7.318;2023-11-21T08:29:50;26;23;
47810;PMS5003;33575;52.600;7.318;2023-11-21T08:32:21;35;26;
47810;PMS5003;33575;52.600;7.318;2023-11-21T08:34:54;29;25;
47810;PMS5003;33575;52.600;7.318;2023-11-21T08:37:21;24;23;
47810;PMS5003;33575;52.600;7.318;2023-11-21T08:39:52;28;23;
47810;PMS5003;33575;52.600;7.318;2023-11-21T08:42:22;38;30;
47810;PMS5003;33575;52.600;7.318;2023-11-21T08:44:53;39;28;
47810;PMS5003;33575;52.600;7.318;2023-11-21T08:47:24;40;33;
47810;PMS5003;33575;52.600;7.318;2023-11-21T08:49:55;28;24;
47810;PMS5003;33575;52.600;7.318;2023-11-21T08:52:25;38;28;
47810;PMS5003;33575;52.600;7.318;2023-11-21T08:54:56;36;27;
47810;PMS5003;33575;52.600;7.318;2023-11-21T08:57:26;37;26;
47810;PMS5003;33575;52.600;7.318;2023-11-21T08:59:57;34;27;
47810;PMS5003;33575;52.600;7.318;2023-11-21T09:02:27;31;28;
47810;PMS5003;33575;52.600;7.318;2023-11-21T09:04:58;27;26;
47810;PMS5003;33575;52.600;7.318;2023-11-21T09:07:28;24;23;
47810;PMS5003;33575;52.600;7.318;2023-11-21T09:09:58;33;26;
47810;PMS5003;33575;52.600;7.318;2023-11-21T09:12:29;30;25;
47810;PMS5003;33575;52.600;7.318;2023-11-21T09:14:59;29;25;
47810;PMS5003;33575;52.600;7.318;2023-11-21T09:17:30;39;27;
47810;PMS5003;33575;52.600;7.318;2023-11-21T09:20:00;29;22;
47810;PMS5003;33575;52.600;7.318;2023-11-21T09:22:31;30;25;
47810;PMS5003;33575;52.600;7.318;2023-11-21T09:25:01;26;24;
47810;PMS5003;33575;52.600;7.318;2023-11-21T09:27:31;32;24;
47810;PMS5003;33575;52.600;7.318;2023-11-21T09:30:02;26;24;
47810;PMS5003;33575;52.600;7.318;2023-11-21T09:32:33;27;23;
47810;PMS5003;33575;52.600;7.318;2023-11-21T09:35:04;30;20;
47810;PMS5003;33575;52.600;7.318;2023-11-21T09:37:34;25;23;
47810;PMS5003;33575;52.600;7.318;2023-11-21T09:40:05;31;21;
47810;PMS5003;33575;52.600;7.318;2023-11-21T09:42:36;28;20;
47810;PMS5003;33575;52.600;7.318;2023-11-21T09:45:07;20;19;
47810;PMS5003;33575;52.600;7.318;2023-11-21T09:47:35;23;18;
47810;PMS5003;33575;52.600;7.318;2023-11-21T09:50:06;23;20;
47810;PMS5003;33575;52.600;7.318;2023-11-21T09:52:38;17;16;
47810;PMS5003;33575;52.600;7.318;2023-11-21T09:55:07;24;18;
47810;PMS5003;33575;52.600;7.318;2023-11-21T09:57:37;33;19;
47810;PMS5003;33575;52.600;7.318;2023-11-21T10:00:08;25;20;
47810;PMS5003;33575;52.600;7.318;2023-11-21T10:02:38;24;19;
47810;PMS5003;33575;52.600;7.318;2023-11-21T10:05:08;24;22;
47810;PMS5003;33575;52.600;7.318;2023-11-21T10:07:39;30;26;
47810;PMS5003;33575;52.600;7.318;2023-11-21T10:10:10;22;22;
47810;PMS5003;33575;52.600;7.318;2023-11-21T10:12:40;31;23;
47810;PMS5003;33575;52.600;7.318;2023-11-21T10:15:10;34;25;
47810;PMS5003;33575;52.600;7.318;2023-11-21T10:17:40;32;27;
47810;PMS5003;33575;52.600;7.318;2023-11-21T10:20:11;34;25;
47810;PMS5003;33575;52.600;7.318;2023-11-21T10:22:42;33;28;
47810;PMS5003;33575;52.600;7.318;2023-11-21T10:25:12;35;26;
47810;PMS5003;33575;52.600;7.318;2023-11-21T10:27:42;34;27;
47810;PMS5003;33575;52.600;7.318;2023-11-21T10:30:13;33;26;
47810;PMS5003;33575;52.600;7.318;2023-11-21T10:32:43;27;23;
47810;PMS5003;33575;52.600;7.318;2023-11-21T10:35:14;24;22;
47810;PMS5003;33575;52.600;7.318;2023-11-21T10:37:44;30;24;
47810;PMS5003;33575;52.600;7.318;2023-11-21T10:40:14;24;23;
47810;PMS5003;33575;52.600;7.318;2023-11-21T10:42:45;24;23;
47810;PMS5003;33575;52.600;7.318;2023-11-21T10:45:15;25;23;
47810;PMS5003;33575;52.600;7.318;2023-11-21T10:47:46;26;24;
47810;PMS5003;33575;52.600;7.318;2023-11-21T10:50:16;31;24;
47810;PMS5003;33575;52.600;7.318;2023-11-21T10:52:46;25;22;
47810;PMS5003;33575;52.600;7.318;2023-11-21T10:55:17;24;22;
47810;PMS5003;33575;52.600;7.318;2023-11-21T10:57:48;30;25;
47810;PMS5003;33575;52.600;7.318;2023-11-21T11:00:18;30;20;
47810;PMS5003;33575;52.600;7.318;2023-11-21T11:02:50;22;22;
47810;PMS5003;33575;52.600;7.318;2023-11-21T11:05:19;28;23;
47810;PMS5003;33575;52.600;7.318;2023-11-21T11:07:50;24;22;
47810;PMS5003;33575;52.600;7.318;2023-11-21T11:10:20;26;22;
47810;PMS5003;33575;52.600;7.318;2023-11-21T11:12:51;24;22;
47810;PMS5003;33575;52.600;7.318;2023-11-21T11:15:21;21;18;
47810;PMS5003;33575;52.600;7.318;2023-11-21T11:17:51;33;25;
47810;PMS5003;33575;52.600;7.318;2023-11-21T11:20:22;22;21;
47810;PMS5003;33575;52.600;7.318;2023-11-21T11:22:59;18;17;
47810;PMS5003;33575;52.600;7.318;2023-11-21T11:27:54;18;17;
47810;PMS5003;33575;52.600;7.318;2023-11-21T11:30:27;31;23;
47810;PMS5003;33575;52.600;7.318;2023-11-21T11:32:55;20;19;
47810;PMS5003;33575;52.600;7.318;2023-11-21T11:35:26;19;16;
47810;PMS5003;33575;52.600;7.318;2023-11-21T11:37:55;20;19;
47810;PMS5003;33575;52.600;7.318;2023-11-21T11:42:56;21;18;
47810;PMS5003;33575;52.600;7.318;2023-11-21T11:45:31;19;18;
47810;PMS5003;33575;52.600;7.318;2023-11-21T11:47:56;25;18;
47810;PMS5003;33575;52.600;7.318;2023-11-21T11:50:27;19;17;
47810;PMS5003;33575;52.600;7.318;2023-11-21T11:55:27;23;19;
47810;PMS5003;33575;52.600;7.318;2023-11-21T11:57:57;21;19;
47810;PMS5003;33575;52.600;7.318;2023-11-21T12:00:33;23;17;
47810;PMS5003;33575;52.600;7.318;2023-11-21T12:02:59;17;16;
47810;PMS5003;33575;52.600;7.318;2023-11-21T12:05:30;17;16;
47810;PMS5003;33575;52.600;7.318;2023-11-21T12:08:00;17;17;
47810;PMS5003;33575;52.600;7.318;2023-11-21T12:10:31;16;15;
47810;PMS5003;33575;52.600;7.318;2023-11-21T12:13:01;15;14;
47810;PMS5003;33575;52.600;7.318;2023-11-21T12:15:31;15;14;
47810;PMS5003;33575;52.600;7.318;2023-11-21T12:18:01;14;14;
47810;PMS5003;33575;52.600;7.318;2023-11-21T12:20:31;16;14;
47810;PMS5003;33575;52.600;7.318;2023-11-21T12:23:02;15;14;
47810;PMS5003;33575;52.600;7.318;2023-11-21T12:25:32;18;16;
47810;PMS5003;33575;52.600;7.318;2023-11-21T12:28:03;17;15;
47810;PMS5003;33575;52.600;7.318;2023-11-21T12:30:33;20;17;
47810;PMS5003;33575;52.600;7.318;2023-11-21T12:33:04;24;17;
47810;PMS5003;33575;52.600;7.318;2023-11-21T12:35:35;14;13;
47810;PMS5003;33575;52.600;7.318;2023-11-21T12:38:04;18;17;
47810;PMS5003;33575;52.600;7.318;2023-11-21T12:40:34;13;13;
47810;PMS5003;33575;52.600;7.318;2023-11-21T12:43:06;19;18;
47810;PMS5003;33575;52.600;7.318;2023-11-21T12:45:35;16;15;
47810;PMS5003;33575;52.600;7.318;2023-11-21T12:48:06;21;18;
47810;PMS5003;33575;52.600;7.318;2023-11-21T12:50:36;18;17;
47810;PMS5003;33575;52.600;7.318;2023-11-21T12:53:07;25;22;
47810;PMS5003;33575;52.600;7.318;2023-11-21T12:55:37;23;22;
47810;PMS5003;33575;52.600;7.318;2023-11-21T12:58:08;26;21;
47810;PMS5003;33575;52.600;7.318;2023-11-21T13:00:38;27;23;
47810;PMS5003;33575;52.600;7.318;2023-11-21T13:03:08;27;21;
47810;PMS5003;33575;52.600;7.318;2023-11-21T13:05:38;18;16;
47810;PMS5003;33575;52.600;7.318;2023-11-21T13:08:09;21;18;
47810;PMS5003;33575;52.600;7.318;2023-11-21T13:10:40;19;17;
47810;PMS5003;33575;52.600;7.318;2023-11-21T13:13:10;20;18;
47810;PMS5003;33575;52.600;7.318;2023-11-21T13:15:40;19;17;
47810;PMS5003;33575;52.600;7.318;2023-11-21T13:18:10;19;16;
47810;PMS5003;33575;52.600;7.318;2023-11-21T13:20:42;24;20;
47810;PMS5003;33575;52.600;7.318;2023-11-21T13:23:11;21;20;
47810;PMS5003;33575;52.600;7.318;2023-11-21T13:25:41;28;24;
47810;PMS5003;33575;52.600;7.318;2023-11-21T13:28:13;19;19;
47810;PMS5003;33575;52.600;7.318;2023-11-21T13:30:42;17;16;
47810;PMS5003;33575;52.600;7.318;2023-11-21T13:33:13;20;20;
47810;PMS5003;33575;52.600;7.318;2023-11-21T13:35:44;29;23;
47810;PMS5003;33575;52.600;7.318;2023-11-21T13:38:14;23;20;
47810;PMS5003;33575;52.600;7.318;2023-11-21T13:40:46;23;21;
47810;PMS5003;33575;52.600;7.318;2023-11-21T13:43:15;31;22;
47810;PMS5003;33575;52.600;7.318;2023-11-21T13:45:46;22;18;
47810;PMS5003;33575;52.600;7.318;2023-11-21T13:48:15;21;19;
47810;PMS5003;33575;52.600;7.318;2023-11-21T13:50:45;23;22;
47810;PMS5003;33575;52.600;7.318;2023-11-21T13:53:16;22;19;
47810;PMS5003;33575;52.600;7.318;2023-11-21T13:55:47;32;22;
47810;PMS5003;33575;52.600;7.318;2023-11-21T13:58:17;23;22;
47810;PMS5003;33575;52.600;7.318;2023-11-21T14:00:48;27;21;
47810;PMS5003;33575;52.600;7.318;2023-11-21T14:03:18;26;22;
47810;PMS5003;33575;52.600;7.318;2023-11-21T14:05:49;19;19;
47810;PMS5003;33575;52.600;7.318;2023-11-21T14:08:19;19;19;
47810;PMS5003;33575;52.600;7.318;2023-11-21T14:10:49;24;23;
47810;PMS5003;33575;52.600;7.318;2023-11-21T14:13:20;28;21;
47810;PMS5003;33575;52.600;7.318;2023-11-21T14:15:51;25;22;
47810;PMS5003;33575;52.600;7.318;2023-11-21T14:18:21;22;18;
47810;PMS5003;33575;52.600;7.318;2023-11-21T14:20:52;18;17;
47810;PMS5003;33575;52.600;7.318;2023-11-21T14:23:23;23;21;
47810;PMS5003;33575;52.600;7.318;2023-11-21T14:25:53;21;20;
47810;PMS5003;33575;52.600;7.318;2023-11-21T14:28:24;17;17;
47810;PMS5003;33575;52.600;7.318;2023-11-21T14:30:54;16;16;
47810;PMS5003;33575;52.600;7.318;2023-11-21T14:33:25;26;18;
47810;PMS5003;33575;52.600;7.318;2023-11-21T14:35:55;18;18;
47810;PMS5003;33575;52.600;7.318;2023-11-21T14:38:25;30;21;
47810;PMS5003;33575;52.600;7.318;2023-11-21T14:40:56;24;18;
47810;PMS5003;33575;52.600;7.318;2023-11-21T14:43:26;19;17;
47810;PMS5003;33575;52.600;7.318;2023-11-21T14:45:56;21;20;
47810;PMS5003;33575;52.600;7.318;2023-11-21T14:48:27;17;17;
47810;PMS5003;33575;52.600;7.318;2023-11-21T14:50:57;17;16;
47810;PMS5003;33575;52.600;7.318;2023-11-21T14:53:28;20;16;
47810;PMS5003;33575;52.600;7.318;2023-11-21T14:55:59;24;15;
47810;PMS5003;33575;52.600;7.318;2023-11-21T14:58:29;21;18;
47810;PMS5003;33575;52.600;7.318;2023-11-21T15:01:00;18;17;
47810;PMS5003;33575;52.600;7.318;2023-11-21T15:03:30;21;19;
47810;PMS5003;33575;52.600;7.318;2023-11-21T15:06:01;21;20;
47810;PMS5003;33575;52.600;7.318;2023-11-21T15:08:30;20;18;
47810;PMS5003;33575;52.600;7.318;2023-11-21T15:11:01;20;18;
47810;PMS5003;33575;52.600;7.318;2023-11-21T15:13:31;17;16;
47810;PMS5003;33575;52.600;7.318;2023-11-21T15:16:02;19;19;
47810;PMS5003;33575;52.600;7.318;2023-11-21T15:18:32;18;17;
47810;PMS5003;33575;52.600;7.318;2023-11-21T15:21:03;18;18;
47810;PMS5003;33575;52.600;7.318;2023-11-21T15:23:33;16;15;
47810;PMS5003;33575;52.600;7.318;2023-11-21T15:26:04;22;16;
47810;PMS5003;33575;52.600;7.318;2023-11-21T15:28:34;14;14;
47810;PMS5003;33575;52.600;7.318;2023-11-21T15:31:05;16;15;
47810;PMS5003;33575;52.600;7.318;2023-11-21T15:33:35;13;11;
47810;PMS5003;33575;52.600;7.318;2023-11-21T15:36:06;18;14;
47810;PMS5003;33575;52.600;7.318;2023-11-21T15:38:36;16;14;
47810;PMS5003;33575;52.600;7.318;2023-11-21T15:41:07;12;12;
47810;PMS5003;33575;52.600;7.318;2023-11-21T15:43:37;15;14;
47810;PMS5003;33575;52.600;7.318;2023-11-21T15:46:08;11;11;
47810;PMS5003;33575;52.600;7.318;2023-11-21T15:48:38;13;12;
47810;PMS5003;33575;52.600;7.318;2023-11-21T15:51:09;15;12;
47810;PMS5003;33575;52.600;7.318;2023-11-21T15:53:40;11;11;
47810;PMS5003;33575;52.600;7.318;2023-11-21T15:56:10;13;13;
47810;PMS5003;33575;52.600;7.318;2023-11-21T15:58:41;13;13;
47810;PMS5003;33575;52.600;7.318;2023-11-21T16:01:11;10;10;
47810;PMS5003;33575;52.600;7.318;2023-11-21T16:03:41;12;12;
47810;PMS5003;33575;52.600;7.318;2023-11-21T16:06:12;10;10;
47810;PMS5003;33575;52.600;7.318;2023-11-21T16:08:43;13;10;
47810;PMS5003;33575;52.600;7.318;2023-11-21T16:11:14;11;11;
47810;PMS5003;33575;52.600;7.318;2023-11-21T16:13:44;12;12;
47810;PMS5003;33575;52.600;7.318;2023-11-21T16:16:14;13;12;
47810;PMS5003;33575;52.600;7.318;2023-11-21T16:18:45;12;10;
47810;PMS5003;33575;52.600;7.318;2023-11-21T16:21:16;11;11;
47810;PMS5003;33575;52.600;7.318;2023-11-21T16:23:46;12;10;
47810;PMS5003;33575;52.600;7.318;2023-11-21T16:26:17;9;9;
47810;PMS5003;33575;52.600;7.318;2023-11-21T16:28:47;11;10;
47810;PMS5003;33575;52.600;7.318;2023-11-21T16:31:21;13;12;
47810;PMS5003;33575;52.600;7.318;2023-11-21T16:33:48;13;11;
47810;PMS5003;33575;52.600;7.318;2023-11-21T16:36:19;14;11;
47810;PMS5003;33575;52.600;7.318;2023-11-21T16:38:49;11;11;
47810;PMS5003;33575;52.600;7.318;2023-11-21T16:41:20;13;12;
47810;PMS5003;33575;52.600;7.318;2023-11-21T16:43:50;10;10;
47810;PMS5003;33575;52.600;7.318;2023-11-21T16:46:21;10;9;